KMCB/MCB METAR and TAF weather

Enter ICAO airport designator
Station Type Date Time Source
KMCB METAR 2021/08/05 02:53 UTC NOAA

KMCB 050253Z AUTO 36003KT 10SM CLR 23/19 A3003 RMK AO2 SLP164 T02330189 51010


Station Type Date Time Source
KMCB Decoded METAR 2021/08/05 02:53 UTC NOAA

MCCOMB/PIKE COUNTY AIRPORT, MS, United States (KMCB) 31-11N 90-28W 124M
Aug 04, 2021 - 10:53 PM EDT / 2021.08.05 0253 UTC
Wind: from the N (360 degrees) at 3 MPH (3 KT):0
Visibility: 10 mile(s):0
Sky conditions: clear
Temperature: 73.9 F (23.3 C)
Dew Point: 66.0 F (18.9 C)
Relative Humidity: 76%
Pressure (altimeter): 30.03 in. Hg (1016 hPa)
Pressure tendency: 0.03 inches (1.0 hPa) higher than three hours ago
ob: KMCB 050253Z AUTO 36003KT 10SM CLR 23/19 A3003 RMK AO2 SLP164 T02330189 51010
cycle: 3

Station Type Date Time Source
KMCB TAF 2021/08/04 18:22 UTC NOAA

TAF KMCB 041720Z 0418/0518 03007KT P6SM FEW250

Example: see airport list